Terminal Aerodrome Forecast
Issued by NWS

Home | Current Version | Previous Version | Text Only | Print | Product List | Glossary On
Versions: 1 2 3 4 5 6 7 8 9 10 11 12 13 14 15
000
FTUS43 KILX 261724
TAFDEC
TAF
KDEC 261724Z 2618/2718 14006KT P6SM FEW050 SCT090
     FM270200 16004KT P6SM VCTS SCT090CB BKN200
      TEMPO 2703/2706 4SM TSRA BR BKN050CB
     FM270600 16004KT P6SM -SHRA OVC060
     FM271400 25006KT P6SM -SHRA OVC020=

USA.gov is the U.S. government's official web portal to all federal, state and local government web resources and services.